SWR560 LSZH-LFMN
Flight info
| Callsign | SWR560 |
|---|---|
| Flight time | 1h 3m |
| Altitude | 34000 |
| Route | VEBIT4S VEBIT T53 GERSA DCT SOSON DCT ODINA DCT ENOBA/N0455F350 Z185 ASBOP/N0386F190 Z185 BORDI BORDI8R |
| Aircraft | A321/M-SDE3FGHIRWY/LB1 |
Departure
| Time | 2026-05-04 13:49 |
|---|---|
| Airport | Zürich Airport (LSZH) |
Arrival
| Time | 2026-05-04 14:53 |
|---|---|
| Airport | Nice-Côte d'Azur Airport (LFMN) |
| Time | Latitude | Longitude | Altitude | Speed | Heading |
|---|---|---|---|---|---|
| 2026-05-04 13:22 | 47.45432 | 8.55636 | 1397 ft | 0 kts | 186° |
| 2026-05-04 13:23 | 47.45438 | 8.55636 | 1397 ft | 0 kts | 186° |
| 2026-05-04 13:35 | 47.45439 | 8.55637 | 1397 ft | 2 kts | 186° |
| 2026-05-04 13:36 | 47.45463 | 8.55640 | 1399 ft | 2 kts | 186° |
| 2026-05-04 13:36 | 47.45486 | 8.55645 | 1404 ft | 4 kts | 199° |
| 2026-05-04 13:36 | 47.45507 | 8.55663 | 1405 ft | 4 kts | 236° |
| 2026-05-04 13:36 | 47.45513 | 8.55694 | 1405 ft | 4 kts | 276° |
| 2026-05-04 13:37 | 47.45511 | 8.55720 | 1402 ft | 0 kts | 276° |
| 2026-05-04 13:39 | 47.45511 | 8.55717 | 1405 ft | 2 kts | 276° |
| 2026-05-04 13:39 | 47.45514 | 8.55672 | 1397 ft | 7 kts | 276° |
| 2026-05-04 13:40 | 47.45519 | 8.55606 | 1403 ft | 6 kts | 276° |
| 2026-05-04 13:40 | 47.45523 | 8.55553 | 1397 ft | 5 kts | 275° |
| 2026-05-04 13:40 | 47.45528 | 8.55458 | 1404 ft | 12 kts | 275° |
| 2026-05-04 13:40 | 47.45536 | 8.55341 | 1399 ft | 11 kts | 275° |
| 2026-05-04 13:41 | 47.45568 | 8.55257 | 1405 ft | 11 kts | 332° |
| 2026-05-04 13:41 | 47.45653 | 8.55195 | 1403 ft | 17 kts | 335° |
| 2026-05-04 13:41 | 47.45778 | 8.55108 | 1401 ft | 23 kts | 335° |
| 2026-05-04 13:42 | 47.46053 | 8.54918 | 1404 ft | 26 kts | 336° |
| 2026-05-04 13:42 | 47.46265 | 8.54772 | 1402 ft | 25 kts | 335° |
| 2026-05-04 13:42 | 47.46419 | 8.54667 | 1399 ft | 24 kts | 335° |
| 2026-05-04 13:42 | 47.46565 | 8.54566 | 1401 ft | 23 kts | 334° |
| 2026-05-04 13:43 | 47.46705 | 8.54468 | 1402 ft | 22 kts | 335° |
| 2026-05-04 13:43 | 47.46798 | 8.54415 | 1404 ft | 21 kts | 341° |
| 2026-05-04 13:43 | 47.46900 | 8.54349 | 1403 ft | 0 kts | 334° |
| 2026-05-04 13:44 | 47.46916 | 8.54338 | 1400 ft | 8 kts | 335° |
| 2026-05-04 13:44 | 47.47004 | 8.54277 | 1404 ft | 19 kts | 335° |
| 2026-05-04 13:44 | 47.47114 | 8.54202 | 1402 ft | 20 kts | 335° |
| 2026-05-04 13:44 | 47.47239 | 8.54117 | 1402 ft | 19 kts | 335° |
| 2026-05-04 13:45 | 47.47358 | 8.54035 | 1397 ft | 18 kts | 335° |
| 2026-05-04 13:45 | 47.47471 | 8.53956 | 1403 ft | 18 kts | 335° |
| 2026-05-04 13:45 | 47.47573 | 8.53884 | 1402 ft | 17 kts | 326° |
| 2026-05-04 13:45 | 47.47610 | 8.53783 | 1397 ft | 0 kts | 272° |
| 2026-05-04 13:46 | 47.47610 | 8.53777 | 1397 ft | 2 kts | 269° |
| 2026-05-04 13:46 | 47.47597 | 8.53716 | 1403 ft | 8 kts | 244° |
| 2026-05-04 13:47 | 47.47565 | 8.53667 | 1401 ft | 7 kts | 208° |
| 2026-05-04 13:47 | 47.47510 | 8.53642 | 1403 ft | 8 kts | 174° |
| 2026-05-04 13:47 | 47.47488 | 8.53655 | 1401 ft | 0 kts | 155° |
| 2026-05-04 13:48 | 47.47469 | 8.53668 | 1403 ft | 14 kts | 155° |
| 2026-05-04 13:48 | 47.47151 | 8.53894 | 1406 ft | 85 kts | 155° |
| 2026-05-04 13:48 | 47.46438 | 8.54389 | 1403 ft | 139 kts | 155° |
| 2026-05-04 13:49 | 47.45423 | 8.55089 | 1409 ft | 180 kts | 153° |
| 2026-05-04 13:49 | 47.44288 | 8.55873 | 1977 ft | 177 kts | 154° |
| 2026-05-04 13:49 | 47.43160 | 8.56623 | 2594 ft | 181 kts | 156° |
| 2026-05-04 13:49 | 47.41975 | 8.57508 | 2756 ft | 203 kts | 141° |
| 2026-05-04 13:50 | 47.41183 | 8.59291 | 2928 ft | 219 kts | 102° |
| 2026-05-04 13:50 | 47.41272 | 8.61533 | 3367 ft | 223 kts | 68° |
| 2026-05-04 13:50 | 47.42269 | 8.63254 | 3852 ft | 225 kts | 28° |
| 2026-05-04 13:50 | 47.43769 | 8.63792 | 4526 ft | 225 kts | 353° |
| 2026-05-04 13:51 | 47.45197 | 8.62900 | 5115 ft | 229 kts | 315° |
| 2026-05-04 13:51 | 47.45808 | 8.61664 | 5459 ft | 230 kts | 290° |
| 2026-05-04 13:51 | 47.45949 | 8.61030 | 5572 ft | 232 kts | 276° |
| 2026-05-04 13:52 | 47.45307 | 8.56473 | 6439 ft | 247 kts | 263° |
| 2026-05-04 13:52 | 47.45232 | 8.53996 | 7299 ft | 239 kts | 268° |
| 2026-05-04 13:52 | 47.45230 | 8.51434 | 7593 ft | 261 kts | 268° |
| 2026-05-04 13:53 | 47.45037 | 8.48683 | 7916 ft | 275 kts | 252° |
| 2026-05-04 13:53 | 47.44230 | 8.46102 | 8533 ft | 279 kts | 237° |
| 2026-05-04 13:53 | 47.43181 | 8.43672 | 9237 ft | 281 kts | 235° |
| 2026-05-04 13:54 | 47.40936 | 8.38802 | 10320 ft | 300 kts | 234° |
| 2026-05-04 13:54 | 47.39715 | 8.36198 | 10443 ft | 321 kts | 234° |
| 2026-05-04 13:54 | 47.37348 | 8.30123 | 10682 ft | 360 kts | 241° |
| 2026-05-04 13:55 | 47.36163 | 8.26796 | 11047 ft | 370 kts | 241° |
| 2026-05-04 13:55 | 47.33761 | 8.20001 | 12149 ft | 376 kts | 241° |
| 2026-05-04 13:55 | 47.32564 | 8.16620 | 12725 ft | 378 kts | 241° |
| 2026-05-04 13:56 | 47.31342 | 8.13182 | 13283 ft | 380 kts | 241° |
| 2026-05-04 13:56 | 47.29904 | 8.09918 | 13800 ft | 381 kts | 226° |
| 2026-05-04 13:56 | 47.25122 | 8.07042 | 14661 ft | 386 kts | 178° |
| 2026-05-04 13:57 | 47.22523 | 8.08022 | 15079 ft | 392 kts | 154° |
| 2026-05-04 13:57 | 47.20381 | 8.10514 | 15480 ft | 399 kts | 131° |
| 2026-05-04 13:58 | 47.18671 | 8.22393 | 16619 ft | 421 kts | 77° |
| 2026-05-04 13:58 | 47.20424 | 8.30676 | 17304 ft | 425 kts | 85° |
| 2026-05-04 13:58 | 47.20469 | 8.35006 | 17670 ft | 423 kts | 99° |
| 2026-05-04 13:59 | 47.19842 | 8.39206 | 18043 ft | 421 kts | 112° |
| 2026-05-04 13:59 | 47.18601 | 8.43091 | 18396 ft | 418 kts | 125° |
| 2026-05-04 13:59 | 47.14526 | 8.49023 | 19067 ft | 414 kts | 149° |
| 2026-05-04 14:00 | 47.12034 | 8.51017 | 19424 ft | 412 kts | 159° |
| 2026-05-04 14:00 | 47.06465 | 8.52868 | 20215 ft | 412 kts | 176° |
| 2026-05-04 14:00 | 47.03601 | 8.53256 | 20569 ft | 415 kts | 176° |
| 2026-05-04 14:01 | 47.00714 | 8.53657 | 20925 ft | 417 kts | 176° |
| 2026-05-04 14:01 | 46.97818 | 8.54071 | 21313 ft | 419 kts | 176° |
| 2026-05-04 14:01 | 46.91979 | 8.54924 | 22057 ft | 423 kts | 176° |
| 2026-05-04 14:02 | 46.89041 | 8.55353 | 22415 ft | 424 kts | 176° |
| 2026-05-04 14:02 | 46.86096 | 8.55780 | 22739 ft | 426 kts | 176° |
| 2026-05-04 14:02 | 46.83137 | 8.56206 | 23044 ft | 428 kts | 176° |
| 2026-05-04 14:02 | 46.80203 | 8.56625 | 23396 ft | 430 kts | 176° |
| 2026-05-04 14:03 | 46.77212 | 8.57051 | 23783 ft | 432 kts | 176° |
| 2026-05-04 14:03 | 46.74214 | 8.57479 | 24109 ft | 433 kts | 176° |
| 2026-05-04 14:03 | 46.71206 | 8.57910 | 24407 ft | 435 kts | 176° |
| 2026-05-04 14:03 | 46.68189 | 8.58344 | 24728 ft | 437 kts | 176° |
| 2026-05-04 14:04 | 46.62127 | 8.59208 | 25327 ft | 439 kts | 176° |
| 2026-05-04 14:04 | 46.59061 | 8.59646 | 25617 ft | 441 kts | 176° |
| 2026-05-04 14:04 | 46.55997 | 8.60083 | 25854 ft | 442 kts | 176° |
| 2026-05-04 14:05 | 46.49876 | 8.60944 | 26277 ft | 445 kts | 176° |
| 2026-05-04 14:05 | 46.46781 | 8.61382 | 26470 ft | 446 kts | 176° |
| 2026-05-04 14:05 | 46.43689 | 8.61816 | 26644 ft | 447 kts | 176° |
| 2026-05-04 14:06 | 46.40581 | 8.62258 | 26820 ft | 449 kts | 176° |
| 2026-05-04 14:06 | 46.37471 | 8.62700 | 26999 ft | 449 kts | 176° |
| 2026-05-04 14:06 | 46.34392 | 8.63137 | 27239 ft | 449 kts | 176° |
| 2026-05-04 14:06 | 46.31244 | 8.63579 | 27463 ft | 448 kts | 176° |
| 2026-05-04 14:07 | 46.28172 | 8.64008 | 27734 ft | 448 kts | 176° |
| 2026-05-04 14:07 | 46.25070 | 8.64441 | 28028 ft | 446 kts | 176° |
| 2026-05-04 14:07 | 46.21976 | 8.64876 | 28229 ft | 447 kts | 176° |
| 2026-05-04 14:07 | 46.18885 | 8.65307 | 28477 ft | 447 kts | 176° |
| 2026-05-04 14:08 | 46.15789 | 8.65739 | 28736 ft | 446 kts | 176° |
| 2026-05-04 14:08 | 46.12698 | 8.66169 | 28935 ft | 446 kts | 176° |
| 2026-05-04 14:08 | 46.09600 | 8.66236 | 29145 ft | 444 kts | 185° |
| 2026-05-04 14:08 | 46.06542 | 8.65698 | 29396 ft | 443 kts | 189° |
| 2026-05-04 14:09 | 46.00449 | 8.64439 | 29896 ft | 442 kts | 189° |
| 2026-05-04 14:09 | 45.97404 | 8.63821 | 30154 ft | 441 kts | 189° |
| 2026-05-04 14:10 | 45.91892 | 8.62702 | 30549 ft | 440 kts | 189° |
| 2026-05-04 14:10 | 45.88861 | 8.62084 | 30781 ft | 439 kts | 189° |
| 2026-05-04 14:10 | 45.85830 | 8.61466 | 31012 ft | 439 kts | 189° |
| 2026-05-04 14:10 | 45.83018 | 8.60895 | 31217 ft | 438 kts | 189° |
| 2026-05-04 14:11 | 45.79993 | 8.60284 | 31440 ft | 438 kts | 190° |
| 2026-05-04 14:11 | 45.74002 | 8.59070 | 31922 ft | 437 kts | 190° |
| 2026-05-04 14:11 | 45.70984 | 8.58458 | 32160 ft | 436 kts | 190° |
| 2026-05-04 14:12 | 45.67973 | 8.57853 | 32377 ft | 436 kts | 190° |
| 2026-05-04 14:12 | 45.64972 | 8.57252 | 32602 ft | 436 kts | 190° |
| 2026-05-04 14:12 | 45.58970 | 8.56045 | 33061 ft | 435 kts | 191° |
| 2026-05-04 14:13 | 45.55972 | 8.55441 | 33297 ft | 434 kts | 191° |
| 2026-05-04 14:13 | 45.52988 | 8.54838 | 33526 ft | 433 kts | 191° |
| 2026-05-04 14:13 | 45.50000 | 8.54235 | 33750 ft | 433 kts | 191° |
| 2026-05-04 14:13 | 45.47020 | 8.53636 | 33970 ft | 432 kts | 191° |
| 2026-05-04 14:14 | 45.44080 | 8.53046 | 34174 ft | 432 kts | 192° |
| 2026-05-04 14:14 | 45.38118 | 8.51851 | 34523 ft | 431 kts | 192° |
| 2026-05-04 14:14 | 45.35149 | 8.51253 | 34698 ft | 431 kts | 192° |
| 2026-05-04 14:15 | 45.29217 | 8.50055 | 35036 ft | 430 kts | 192° |
| 2026-05-04 14:15 | 45.23266 | 8.48874 | 35112 ft | 430 kts | 192° |
| 2026-05-04 14:16 | 45.14409 | 8.47146 | 35112 ft | 429 kts | 192° |
| 2026-05-04 14:17 | 45.05534 | 8.45378 | 35107 ft | 428 kts | 192° |
| 2026-05-04 14:18 | 44.96784 | 8.43650 | 35101 ft | 428 kts | 192° |
| 2026-05-04 14:19 | 44.85007 | 8.41338 | 35097 ft | 428 kts | 192° |
| 2026-05-04 14:19 | 44.79100 | 8.40176 | 35097 ft | 428 kts | 192° |
| 2026-05-04 14:20 | 44.73188 | 8.39019 | 34952 ft | 429 kts | 193° |
| 2026-05-04 14:20 | 44.70216 | 8.38440 | 34709 ft | 429 kts | 193° |
| 2026-05-04 14:20 | 44.67292 | 8.37868 | 34472 ft | 429 kts | 192° |
| 2026-05-04 14:21 | 44.61373 | 8.36718 | 33974 ft | 425 kts | 192° |
| 2026-05-04 14:21 | 44.58484 | 8.36159 | 33699 ft | 414 kts | 193° |
| 2026-05-04 14:21 | 44.55667 | 8.35614 | 33424 ft | 405 kts | 193° |
| 2026-05-04 14:21 | 44.52879 | 8.35076 | 33172 ft | 401 kts | 193° |
| 2026-05-04 14:22 | 44.47421 | 8.34014 | 33051 ft | 385 kts | 193° |
| 2026-05-04 14:22 | 44.44826 | 8.33517 | 32781 ft | 377 kts | 193° |
| 2026-05-04 14:22 | 44.42241 | 8.33018 | 32517 ft | 374 kts | 193° |
| 2026-05-04 14:23 | 44.37094 | 8.32016 | 32000 ft | 373 kts | 193° |
| 2026-05-04 14:23 | 44.34566 | 8.31250 | 31747 ft | 368 kts | 202° |
| 2026-05-04 14:23 | 44.32195 | 8.29964 | 31495 ft | 364 kts | 211° |
| 2026-05-04 14:24 | 44.30011 | 8.28189 | 31158 ft | 362 kts | 218° |
| 2026-05-04 14:24 | 44.28115 | 8.26035 | 30749 ft | 354 kts | 227° |
| 2026-05-04 14:24 | 44.26491 | 8.23536 | 30444 ft | 344 kts | 234° |
| 2026-05-04 14:24 | 44.25114 | 8.20824 | 29881 ft | 341 kts | 237° |
| 2026-05-04 14:25 | 44.23781 | 8.18130 | 29114 ft | 343 kts | 236° |
| 2026-05-04 14:25 | 44.21115 | 8.12763 | 28415 ft | 329 kts | 236° |
| 2026-05-04 14:25 | 44.19814 | 8.10154 | 28011 ft | 328 kts | 236° |
| 2026-05-04 14:26 | 44.18510 | 8.07539 | 27479 ft | 329 kts | 236° |
| 2026-05-04 14:26 | 44.17201 | 8.04919 | 26968 ft | 330 kts | 236° |
| 2026-05-04 14:26 | 44.15877 | 8.02267 | 26358 ft | 334 kts | 236° |
| 2026-05-04 14:26 | 44.14545 | 7.99601 | 25710 ft | 337 kts | 235° |
| 2026-05-04 14:27 | 44.13193 | 7.96899 | 24981 ft | 344 kts | 235° |
| 2026-05-04 14:27 | 44.12262 | 7.95038 | 24509 ft | 365 kts | 235° |
| 2026-05-04 14:27 | 44.10743 | 7.92002 | 23803 ft | 399 kts | 235° |
| 2026-05-04 14:27 | 44.09089 | 7.88704 | 22984 ft | 429 kts | 235° |
| 2026-05-04 14:28 | 44.06787 | 7.84115 | 22117 ft | 439 kts | 235° |
| 2026-05-04 14:28 | 44.05607 | 7.81766 | 21848 ft | 439 kts | 234° |
| 2026-05-04 14:28 | 44.03853 | 7.78284 | 21457 ft | 437 kts | 234° |
| 2026-05-04 14:28 | 44.02115 | 7.74834 | 21072 ft | 435 kts | 234° |
| 2026-05-04 14:29 | 43.98732 | 7.68102 | 20310 ft | 414 kts | 234° |
| 2026-05-04 14:29 | 43.95592 | 7.61868 | 20207 ft | 374 kts | 234° |
| 2026-05-04 14:30 | 43.94138 | 7.58991 | 20205 ft | 354 kts | 234° |
| 2026-05-04 14:30 | 43.92762 | 7.56274 | 20199 ft | 335 kts | 234° |
| 2026-05-04 14:30 | 43.90174 | 7.51171 | 20188 ft | 317 kts | 234° |
| 2026-05-04 14:31 | 43.88936 | 7.48731 | 20187 ft | 316 kts | 234° |
| 2026-05-04 14:31 | 43.85831 | 7.44569 | 20182 ft | 315 kts | 210° |
| 2026-05-04 14:32 | 43.81480 | 7.42932 | 20181 ft | 347 kts | 182° |
| 2026-05-04 14:32 | 43.79018 | 7.43389 | 20185 ft | 369 kts | 166° |
| 2026-05-04 14:32 | 43.76625 | 7.44886 | 20180 ft | 389 kts | 150° |
| 2026-05-04 14:32 | 43.74379 | 7.47208 | 19719 ft | 413 kts | 144° |
| 2026-05-04 14:33 | 43.72114 | 7.49789 | 19240 ft | 433 kts | 142° |
| 2026-05-04 14:33 | 43.69831 | 7.52567 | 18759 ft | 438 kts | 141° |
| 2026-05-04 14:33 | 43.67590 | 7.55411 | 18289 ft | 438 kts | 140° |
| 2026-05-04 14:33 | 43.65369 | 7.58277 | 17755 ft | 435 kts | 140° |
| 2026-05-04 14:34 | 43.63162 | 7.61125 | 17227 ft | 432 kts | 140° |
| 2026-05-04 14:34 | 43.60958 | 7.63935 | 16574 ft | 428 kts | 140° |
| 2026-05-04 14:34 | 43.58777 | 7.66697 | 15914 ft | 424 kts | 139° |
| 2026-05-04 14:34 | 43.56950 | 7.69888 | 15280 ft | 425 kts | 124° |
| 2026-05-04 14:35 | 43.55449 | 7.73323 | 14650 ft | 422 kts | 123° |
| 2026-05-04 14:35 | 43.53945 | 7.76779 | 14037 ft | 418 kts | 124° |
| 2026-05-04 14:35 | 43.52117 | 7.79827 | 13359 ft | 408 kts | 142° |
| 2026-05-04 14:35 | 43.49759 | 7.81853 | 12682 ft | 395 kts | 160° |
| 2026-05-04 14:36 | 43.47142 | 7.82668 | 12019 ft | 379 kts | 179° |
| 2026-05-04 14:36 | 43.44582 | 7.82215 | 11368 ft | 366 kts | 199° |
| 2026-05-04 14:36 | 43.42364 | 7.80617 | 10731 ft | 358 kts | 217° |
| 2026-05-04 14:36 | 43.40673 | 7.78164 | 10106 ft | 353 kts | 234° |
| 2026-05-04 14:37 | 43.39627 | 7.75120 | 9437 ft | 350 kts | 252° |
| 2026-05-04 14:37 | 43.39320 | 7.71914 | 8841 ft | 338 kts | 268° |
| 2026-05-04 14:37 | 43.39332 | 7.68777 | 8596 ft | 318 kts | 268° |
| 2026-05-04 14:37 | 43.39340 | 7.65759 | 8420 ft | 310 kts | 267° |
| 2026-05-04 14:38 | 43.39342 | 7.62851 | 8240 ft | 298 kts | 267° |
| 2026-05-04 14:38 | 43.39344 | 7.60047 | 8063 ft | 288 kts | 266° |
| 2026-05-04 14:38 | 43.39341 | 7.57316 | 7888 ft | 285 kts | 266° |
| 2026-05-04 14:38 | 43.39335 | 7.54981 | 7739 ft | 284 kts | 267° |
| 2026-05-04 14:39 | 43.39327 | 7.52264 | 7564 ft | 284 kts | 266° |
| 2026-05-04 14:39 | 43.39320 | 7.49550 | 7394 ft | 284 kts | 266° |
| 2026-05-04 14:39 | 43.39313 | 7.46841 | 7223 ft | 284 kts | 266° |
| 2026-05-04 14:40 | 43.39307 | 7.41572 | 6892 ft | 284 kts | 267° |
| 2026-05-04 14:40 | 43.39303 | 7.38863 | 6722 ft | 283 kts | 267° |
| 2026-05-04 14:40 | 43.39295 | 7.36156 | 6556 ft | 284 kts | 266° |
| 2026-05-04 14:40 | 43.39289 | 7.33434 | 6385 ft | 284 kts | 267° |
| 2026-05-04 14:41 | 43.39286 | 7.30721 | 6205 ft | 284 kts | 267° |
| 2026-05-04 14:41 | 43.39282 | 7.28038 | 6027 ft | 284 kts | 267° |
| 2026-05-04 14:41 | 43.39266 | 7.22599 | 5675 ft | 283 kts | 268° |
| 2026-05-04 14:42 | 43.39245 | 7.17181 | 5319 ft | 284 kts | 268° |
| 2026-05-04 14:42 | 43.39233 | 7.14480 | 5145 ft | 277 kts | 268° |
| 2026-05-04 14:42 | 43.39222 | 7.11896 | 4971 ft | 267 kts | 268° |
| 2026-05-04 14:43 | 43.39211 | 7.09416 | 4822 ft | 251 kts | 269° |
| 2026-05-04 14:43 | 43.39199 | 7.07102 | 4646 ft | 235 kts | 269° |
| 2026-05-04 14:43 | 43.39187 | 7.04963 | 4467 ft | 213 kts | 268° |
| 2026-05-04 14:43 | 43.39177 | 7.03027 | 4308 ft | 191 kts | 268° |
| 2026-05-04 14:44 | 43.39168 | 7.01223 | 4134 ft | 187 kts | 269° |
| 2026-05-04 14:44 | 43.39158 | 6.99437 | 4045 ft | 187 kts | 269° |
| 2026-05-04 14:44 | 43.39228 | 6.97654 | 4002 ft | 187 kts | 281° |
| 2026-05-04 14:44 | 43.39671 | 6.96000 | 4009 ft | 186 kts | 302° |
| 2026-05-04 14:45 | 43.40465 | 6.94619 | 4005 ft | 183 kts | 321° |
| 2026-05-04 14:45 | 43.41507 | 6.93646 | 4007 ft | 179 kts | 339° |
| 2026-05-04 14:45 | 43.42679 | 6.93143 | 4006 ft | 174 kts | 358° |
| 2026-05-04 14:45 | 43.43870 | 6.93139 | 4003 ft | 168 kts | 14° |
| 2026-05-04 14:46 | 43.44974 | 6.93525 | 4009 ft | 164 kts | 27° |
| 2026-05-04 14:46 | 43.45924 | 6.94331 | 4012 ft | 160 kts | 43° |
| 2026-05-04 14:46 | 43.46777 | 6.95335 | 4017 ft | 165 kts | 47° |
| 2026-05-04 14:46 | 43.47623 | 6.96422 | 4012 ft | 167 kts | 49° |
| 2026-05-04 14:47 | 43.48459 | 6.97536 | 4010 ft | 168 kts | 49° |
| 2026-05-04 14:47 | 43.49292 | 6.98661 | 4011 ft | 165 kts | 49° |
| 2026-05-04 14:47 | 43.50091 | 6.99745 | 4010 ft | 159 kts | 49° |
| 2026-05-04 14:47 | 43.50872 | 7.00810 | 3914 ft | 157 kts | 49° |
| 2026-05-04 14:48 | 43.51647 | 7.01868 | 3751 ft | 156 kts | 49° |
| 2026-05-04 14:48 | 43.52419 | 7.02922 | 3559 ft | 155 kts | 49° |
| 2026-05-04 14:48 | 43.53185 | 7.03968 | 3359 ft | 155 kts | 48° |
| 2026-05-04 14:48 | 43.53944 | 7.05005 | 3157 ft | 154 kts | 49° |
| 2026-05-04 14:49 | 43.54708 | 7.06049 | 2951 ft | 158 kts | 48° |
| 2026-05-04 14:49 | 43.55500 | 7.07133 | 2736 ft | 162 kts | 49° |
| 2026-05-04 14:49 | 43.56297 | 7.08222 | 2521 ft | 159 kts | 48° |
| 2026-05-04 14:49 | 43.57066 | 7.09273 | 2305 ft | 153 kts | 49° |
| 2026-05-04 14:50 | 43.57814 | 7.10298 | 2104 ft | 151 kts | 48° |
| 2026-05-04 14:50 | 43.58557 | 7.11316 | 1906 ft | 151 kts | 49° |
| 2026-05-04 14:50 | 43.59292 | 7.12322 | 1704 ft | 150 kts | 49° |
| 2026-05-04 14:50 | 43.60032 | 7.13336 | 1482 ft | 149 kts | 49° |
| 2026-05-04 14:51 | 43.60771 | 7.14350 | 1279 ft | 150 kts | 49° |
| 2026-05-04 14:51 | 43.61509 | 7.15362 | 1073 ft | 149 kts | 49° |
| 2026-05-04 14:51 | 43.62217 | 7.16331 | 870 ft | 140 kts | 50° |
| 2026-05-04 14:51 | 43.62892 | 7.17257 | 692 ft | 136 kts | 51° |
| 2026-05-04 14:52 | 43.63553 | 7.18164 | 527 ft | 133 kts | 50° |
| 2026-05-04 14:52 | 43.64208 | 7.19061 | 367 ft | 132 kts | 53° |
| 2026-05-04 14:52 | 43.64866 | 7.19925 | 197 ft | 130 kts | 51° |
| 2026-05-04 14:52 | 43.65490 | 7.20805 | 39 ft | 123 kts | 52° |
| 2026-05-04 14:53 | 43.66000 | 7.21555 | 21 ft | 82 kts | 46° |
| 2026-05-04 14:53 | 43.66291 | 7.21930 | 23 ft | 36 kts | 38° |
| 2026-05-04 14:53 | 43.66483 | 7.22042 | 22 ft | 17 kts | 18° |
| 2026-05-04 14:53 | 43.66579 | 7.21994 | 22 ft | 15 kts | 312° |
| 2026-05-04 14:54 | 43.66609 | 7.21949 | 22 ft | 0 kts | 313° |
| 2026-05-04 14:54 | 43.66632 | 7.21917 | 22 ft | 9 kts | 316° |
| 2026-05-04 14:55 | 43.66635 | 7.21845 | 22 ft | 9 kts | 233° |
| 2026-05-04 14:55 | 43.66589 | 7.21784 | 22 ft | 10 kts | 221° |
| 2026-05-04 14:55 | 43.66539 | 7.21714 | 22 ft | 11 kts | 225° |
| 2026-05-04 14:55 | 43.66486 | 7.21640 | 22 ft | 11 kts | 225° |
| 2026-05-04 14:56 | 43.66435 | 7.21571 | 22 ft | 12 kts | 224° |
| 2026-05-04 14:56 | 43.66377 | 7.21484 | 22 ft | 15 kts | 236° |
| 2026-05-04 14:56 | 43.66348 | 7.21326 | 22 ft | 17 kts | 261° |
| 2026-05-04 14:56 | 43.66369 | 7.21225 | 22 ft | 8 kts | 324° |
| 2026-05-04 14:57 | 43.66406 | 7.21216 | 22 ft | 5 kts | 20° |
| 2026-05-04 14:57 | 43.66414 | 7.21221 | 22 ft | 0 kts | 22° |